sensor_id;sensor_type;location;lat;lon;timestamp;P1;durP1;ratioP1;P2;durP2;ratioP2
45842;SDS011;31563;51.744;8.252;2023-11-22T00:01:24;2.78;;;1.73;;
45842;SDS011;31563;51.744;8.252;2023-11-22T00:03:52;1.70;;;1.42;;
45842;SDS011;31563;51.744;8.252;2023-11-22T00:06:20;1.80;;;1.60;;
45842;SDS011;31563;51.744;8.252;2023-11-22T00:08:48;2.25;;;1.83;;
45842;SDS011;31563;51.744;8.252;2023-11-22T00:11:18;1.40;;;1.27;;
45842;SDS011;31563;51.744;8.252;2023-11-22T00:13:46;1.95;;;1.60;;
45842;SDS011;31563;51.744;8.252;2023-11-22T00:16:15;2.20;;;1.83;;
45842;SDS011;31563;51.744;8.252;2023-11-22T00:18:43;2.30;;;2.00;;
45842;SDS011;31563;51.744;8.252;2023-11-22T00:21:12;1.75;;;1.30;;
45842;SDS011;31563;51.744;8.252;2023-11-22T00:23:39;2.30;;;1.40;;
45842;SDS011;31563;51.744;8.252;2023-11-22T00:26:07;1.65;;;1.55;;
45842;SDS011;31563;51.744;8.252;2023-11-22T00:28:38;1.40;;;1.30;;
45842;SDS011;31563;51.744;8.252;2023-11-22T00:31:06;1.50;;;1.27;;
45842;SDS011;31563;51.744;8.252;2023-11-22T00:33:34;1.80;;;1.17;;
45842;SDS011;31563;51.744;8.252;2023-11-22T00:36:02;1.83;;;1.50;;
45842;SDS011;31563;51.744;8.252;2023-11-22T00:38:34;1.55;;;1.42;;
45842;SDS011;31563;51.744;8.252;2023-11-22T00:41:03;1.38;;;1.20;;
45842;SDS011;31563;51.744;8.252;2023-11-22T00:43:32;1.95;;;1.70;;
45842;SDS011;31563;51.744;8.252;2023-11-22T00:46:01;2.70;;;1.17;;
45842;SDS011;31563;51.744;8.252;2023-11-22T00:48:29;1.23;;;1.10;;
45842;SDS011;31563;51.744;8.252;2023-11-22T00:50:57;1.42;;;1.13;;
45842;SDS011;31563;51.744;8.252;2023-11-22T00:53:24;1.52;;;1.42;;
45842;SDS011;31563;51.744;8.252;2023-11-22T00:55:53;1.50;;;1.23;;
45842;SDS011;31563;51.744;8.252;2023-11-22T00:58:22;1.23;;;1.02;;
45842;SDS011;31563;51.744;8.252;2023-11-22T01:00:50;1.50;;;1.40;;
45842;SDS011;31563;51.744;8.252;2023-11-22T01:03:19;1.77;;;1.40;;
45842;SDS011;31563;51.744;8.252;2023-11-22T01:05:47;1.75;;;1.38;;
45842;SDS011;31563;51.744;8.252;2023-11-22T01:08:15;1.52;;;1.35;;
45842;SDS011;31563;51.744;8.252;2023-11-22T01:10:43;1.50;;;1.40;;
45842;SDS011;31563;51.744;8.252;2023-11-22T01:13:12;2.10;;;1.27;;
45842;SDS011;31563;51.744;8.252;2023-11-22T01:15:40;1.50;;;1.40;;
45842;SDS011;31563;51.744;8.252;2023-11-22T01:18:10;1.40;;;1.25;;
45842;SDS011;31563;51.744;8.252;2023-11-22T01:20:40;1.50;;;1.38;;
45842;SDS011;31563;51.744;8.252;2023-11-22T01:23:07;1.40;;;1.10;;
45842;SDS011;31563;51.744;8.252;2023-11-22T01:25:35;1.40;;;1.00;;
45842;SDS011;31563;51.744;8.252;2023-11-22T01:28:03;1.42;;;1.33;;
45842;SDS011;31563;51.744;8.252;2023-11-22T01:30:33;2.13;;;1.60;;
45842;SDS011;31563;51.744;8.252;2023-11-22T01:33:01;1.98;;;1.10;;
45842;SDS011;31563;51.744;8.252;2023-11-22T01:35:29;1.67;;;1.10;;
45842;SDS011;31563;51.744;8.252;2023-11-22T01:37:58;1.40;;;1.20;;
45842;SDS011;31563;51.744;8.252;2023-11-22T01:40:26;1.40;;;1.30;;
45842;SDS011;31563;51.744;8.252;2023-11-22T01:42:54;1.23;;;1.10;;
45842;SDS011;31563;51.744;8.252;2023-11-22T01:45:21;1.58;;;1.30;;
45842;SDS011;31563;51.744;8.252;2023-11-22T01:47:49;1.20;;;1.08;;
45842;SDS011;31563;51.744;8.252;2023-11-22T01:50:18;1.40;;;1.30;;
45842;SDS011;31563;51.744;8.252;2023-11-22T01:52:46;1.58;;;1.20;;
45842;SDS011;31563;51.744;8.252;2023-11-22T01:55:16;1.60;;;1.50;;
45842;SDS011;31563;51.744;8.252;2023-11-22T01:57:44;1.20;;;1.10;;
45842;SDS011;31563;51.744;8.252;2023-11-22T02:00:12;1.30;;;1.20;;
45842;SDS011;31563;51.744;8.252;2023-11-22T02:02:42;2.43;;;1.23;;
45842;SDS011;31563;51.744;8.252;2023-11-22T02:05:10;1.50;;;1.20;;
45842;SDS011;31563;51.744;8.252;2023-11-22T02:07:39;1.60;;;1.30;;
45842;SDS011;31563;51.744;8.252;2023-11-22T02:10:08;1.27;;;1.17;;
45842;SDS011;31563;51.744;8.252;2023-11-22T02:12:37;1.38;;;1.23;;
45842;SDS011;31563;51.744;8.252;2023-11-22T02:15:05;1.13;;;1.03;;
45842;SDS011;31563;51.744;8.252;2023-11-22T02:17:34;1.40;;;1.25;;
45842;SDS011;31563;51.744;8.252;2023-11-22T02:20:02;1.48;;;1.08;;
45842;SDS011;31563;51.744;8.252;2023-11-22T02:22:32;1.83;;;1.33;;
45842;SDS011;31563;51.744;8.252;2023-11-22T02:25:02;1.50;;;1.30;;
45842;SDS011;31563;51.744;8.252;2023-11-22T02:27:30;1.58;;;1.35;;
45842;SDS011;31563;51.744;8.252;2023-11-22T02:29:58;1.40;;;1.20;;
45842;SDS011;31563;51.744;8.252;2023-11-22T02:32:26;1.65;;;1.55;;
45842;SDS011;31563;51.744;8.252;2023-11-22T02:34:54;1.65;;;1.42;;
45842;SDS011;31563;51.744;8.252;2023-11-22T02:37:22;1.20;;;1.10;;
45842;SDS011;31563;51.744;8.252;2023-11-22T02:40:00;1.65;;;1.20;;
45842;SDS011;31563;51.744;8.252;2023-11-22T02:42:32;1.17;;;1.08;;
45842;SDS011;31563;51.744;8.252;2023-11-22T02:45:01;1.00;;;0.90;;
45842;SDS011;31563;51.744;8.252;2023-11-22T02:47:29;1.40;;;1.10;;
45842;SDS011;31563;51.744;8.252;2023-11-22T02:49:57;1.20;;;1.10;;
45842;SDS011;31563;51.744;8.252;2023-11-22T02:52:25;1.33;;;1.20;;
45842;SDS011;31563;51.744;8.252;2023-11-22T02:54:53;1.20;;;1.05;;
45842;SDS011;31563;51.744;8.252;2023-11-22T02:57:22;1.33;;;1.05;;
45842;SDS011;31563;51.744;8.252;2023-11-22T02:59:50;1.43;;;1.33;;
45842;SDS011;31563;51.744;8.252;2023-11-22T03:02:18;1.25;;;1.10;;
45842;SDS011;31563;51.744;8.252;2023-11-22T03:04:46;1.27;;;1.10;;
45842;SDS011;31563;51.744;8.252;2023-11-22T03:07:14;1.50;;;1.20;;
45842;SDS011;31563;51.744;8.252;2023-11-22T03:09:42;1.23;;;1.13;;
45842;SDS011;31563;51.744;8.252;2023-11-22T03:12:12;1.50;;;1.08;;
45842;SDS011;31563;51.744;8.252;2023-11-22T03:14:42;1.35;;;0.90;;
45842;SDS011;31563;51.744;8.252;2023-11-22T03:17:10;1.63;;;1.27;;
45842;SDS011;31563;51.744;8.252;2023-11-22T03:19:39;1.20;;;0.97;;
45842;SDS011;31563;51.744;8.252;2023-11-22T03:22:07;1.20;;;1.10;;
45842;SDS011;31563;51.744;8.252;2023-11-22T03:24:35;1.30;;;0.93;;
45842;SDS011;31563;51.744;8.252;2023-11-22T03:27:04;1.55;;;1.30;;
45842;SDS011;31563;51.744;8.252;2023-11-22T03:29:32;1.45;;;1.20;;
45842;SDS011;31563;51.744;8.252;2023-11-22T03:32:02;1.40;;;1.30;;
45842;SDS011;31563;51.744;8.252;2023-11-22T03:34:30;1.15;;;1.00;;
45842;SDS011;31563;51.744;8.252;2023-11-22T03:36:58;1.20;;;1.10;;
45842;SDS011;31563;51.744;8.252;2023-11-22T03:39:26;1.52;;;1.13;;
45842;SDS011;31563;51.744;8.252;2023-11-22T03:41:54;1.35;;;1.25;;
45842;SDS011;31563;51.744;8.252;2023-11-22T03:44:23;1.35;;;0.90;;
45842;SDS011;31563;51.744;8.252;2023-11-22T03:46:51;1.70;;;1.35;;
45842;SDS011;31563;51.744;8.252;2023-11-22T03:49:22;1.70;;;1.20;;
45842;SDS011;31563;51.744;8.252;2023-11-22T03:51:50;1.30;;;1.10;;
45842;SDS011;31563;51.744;8.252;2023-11-22T03:54:18;2.08;;;1.30;;
45842;SDS011;31563;51.744;8.252;2023-11-22T03:56:46;1.38;;;0.90;;
45842;SDS011;31563;51.744;8.252;2023-11-22T03:59:14;1.50;;;1.20;;
45842;SDS011;31563;51.744;8.252;2023-11-22T04:01:42;1.40;;;0.95;;
45842;SDS011;31563;51.744;8.252;2023-11-22T04:04:10;1.30;;;0.93;;
45842;SDS011;31563;51.744;8.252;2023-11-22T04:06:39;1.33;;;1.20;;
45842;SDS011;31563;51.744;8.252;2023-11-22T04:09:07;1.50;;;1.10;;
45842;SDS011;31563;51.744;8.252;2023-11-22T04:11:35;1.70;;;1.08;;
45842;SDS011;31563;51.744;8.252;2023-11-22T04:14:03;1.20;;;1.08;;
45842;SDS011;31563;51.744;8.252;2023-11-22T04:16:31;1.17;;;1.08;;
45842;SDS011;31563;51.744;8.252;2023-11-22T04:19:00;1.17;;;1.05;;
45842;SDS011;31563;51.744;8.252;2023-11-22T04:21:28;1.77;;;1.40;;
45842;SDS011;31563;51.744;8.252;2023-11-22T04:23:58;1.20;;;0.90;;
45842;SDS011;31563;51.744;8.252;2023-11-22T04:26:25;1.97;;;1.40;;
45842;SDS011;31563;51.744;8.252;2023-11-22T04:28:53;1.75;;;1.10;;
45842;SDS011;31563;51.744;8.252;2023-11-22T04:31:21;2.33;;;2.10;;
45842;SDS011;31563;51.744;8.252;2023-11-22T04:33:49;2.72;;;2.53;;
45842;SDS011;31563;51.744;8.252;2023-11-22T04:36:18;3.58;;;1.92;;
45842;SDS011;31563;51.744;8.252;2023-11-22T04:38:48;2.78;;;2.15;;
45842;SDS011;31563;51.744;8.252;2023-11-22T04:41:18;3.45;;;2.05;;
45842;SDS011;31563;51.744;8.252;2023-11-22T04:43:46;2.30;;;2.10;;
45842;SDS011;31563;51.744;8.252;2023-11-22T04:46:14;2.00;;;1.70;;
45842;SDS011;31563;51.744;8.252;2023-11-22T04:48:43;1.90;;;1.50;;
45842;SDS011;31563;51.744;8.252;2023-11-22T04:51:11;3.53;;;1.60;;
45842;SDS011;31563;51.744;8.252;2023-11-22T04:53:39;1.70;;;1.30;;
45842;SDS011;31563;51.744;8.252;2023-11-22T04:56:09;1.50;;;1.20;;
45842;SDS011;31563;51.744;8.252;2023-11-22T04:58:37;2.67;;;1.80;;
45842;SDS011;31563;51.744;8.252;2023-11-22T05:01:05;1.80;;;1.20;;
45842;SDS011;31563;51.744;8.252;2023-11-22T05:03:34;2.00;;;1.50;;
45842;SDS011;31563;51.744;8.252;2023-11-22T05:06:03;1.63;;;1.30;;
45842;SDS011;31563;51.744;8.252;2023-11-22T05:08:32;1.45;;;1.23;;
45842;SDS011;31563;51.744;8.252;2023-11-22T05:11:00;1.80;;;1.40;;
45842;SDS011;31563;51.744;8.252;2023-11-22T05:13:29;1.40;;;1.30;;
45842;SDS011;31563;51.744;8.252;2023-11-22T05:15:58;1.90;;;1.20;;
45842;SDS011;31563;51.744;8.252;2023-11-22T05:18:27;1.50;;;1.10;;
45842;SDS011;31563;51.744;8.252;2023-11-22T05:20:55;2.20;;;1.10;;
45842;SDS011;31563;51.744;8.252;2023-11-22T05:23:23;1.45;;;1.15;;
45842;SDS011;31563;51.744;8.252;2023-11-22T05:25:51;1.83;;;1.15;;
45842;SDS011;31563;51.744;8.252;2023-11-22T05:28:19;4.25;;;3.30;;
45842;SDS011;31563;51.744;8.252;2023-11-22T05:30:47;4.90;;;3.83;;
45842;SDS011;31563;51.744;8.252;2023-11-22T05:33:16;5.20;;;3.45;;
45842;SDS011;31563;51.744;8.252;2023-11-22T05:35:44;4.13;;;3.42;;
45842;SDS011;31563;51.744;8.252;2023-11-22T05:38:12;4.50;;;3.20;;
45842;SDS011;31563;51.744;8.252;2023-11-22T05:40:40;3.78;;;2.53;;
45842;SDS011;31563;51.744;8.252;2023-11-22T05:43:09;3.15;;;2.60;;
45842;SDS011;31563;51.744;8.252;2023-11-22T05:45:38;3.23;;;2.43;;
45842;SDS011;31563;51.744;8.252;2023-11-22T05:48:06;3.90;;;2.92;;
45842;SDS011;31563;51.744;8.252;2023-11-22T05:50:35;2.42;;;2.20;;
45842;SDS011;31563;51.744;8.252;2023-11-22T05:53:03;3.05;;;2.15;;
45842;SDS011;31563;51.744;8.252;2023-11-22T05:55:31;3.78;;;2.25;;
45842;SDS011;31563;51.744;8.252;2023-11-22T05:57:59;3.95;;;2.50;;
45842;SDS011;31563;51.744;8.252;2023-11-22T06:00:27;2.50;;;2.30;;
45842;SDS011;31563;51.744;8.252;2023-11-22T06:02:55;3.03;;;2.25;;
45842;SDS011;31563;51.744;8.252;2023-11-22T06:05:23;2.97;;;2.20;;
45842;SDS011;31563;51.744;8.252;2023-11-22T06:07:53;1.98;;;1.67;;
45842;SDS011;31563;51.744;8.252;2023-11-22T06:10:21;5.32;;;3.35;;
45842;SDS011;31563;51.744;8.252;2023-11-22T06:12:49;3.22;;;2.50;;
45842;SDS011;31563;51.744;8.252;2023-11-22T06:15:17;3.00;;;2.50;;
45842;SDS011;31563;51.744;8.252;2023-11-22T06:17:47;2.70;;;2.25;;
45842;SDS011;31563;51.744;8.252;2023-11-22T06:20:16;2.50;;;2.13;;
45842;SDS011;31563;51.744;8.252;2023-11-22T06:22:44;2.53;;;2.10;;
45842;SDS011;31563;51.744;8.252;2023-11-22T06:25:13;2.60;;;1.80;;
45842;SDS011;31563;51.744;8.252;2023-11-22T06:27:41;2.80;;;1.98;;
45842;SDS011;31563;51.744;8.252;2023-11-22T06:30:10;3.90;;;2.17;;
45842;SDS011;31563;51.744;8.252;2023-11-22T06:32:38;2.47;;;1.98;;
45842;SDS011;31563;51.744;8.252;2023-11-22T06:35:08;2.28;;;1.90;;
45842;SDS011;31563;51.744;8.252;2023-11-22T06:40:05;2.42;;;2.20;;
45842;SDS011;31563;51.744;8.252;2023-11-22T06:42:36;2.88;;;1.77;;
45842;SDS011;31563;51.744;8.252;2023-11-22T06:45:05;2.67;;;2.00;;
45842;SDS011;31563;51.744;8.252;2023-11-22T06:47:36;3.92;;;2.10;;
45842;SDS011;31563;51.744;8.252;2023-11-22T06:50:04;3.30;;;1.80;;
45842;SDS011;31563;51.744;8.252;2023-11-22T06:52:35;2.47;;;1.80;;
45842;SDS011;31563;51.744;8.252;2023-11-22T06:55:04;2.60;;;2.00;;
45842;SDS011;31563;51.744;8.252;2023-11-22T06:57:34;5.28;;;1.98;;
45842;SDS011;31563;51.744;8.252;2023-11-22T07:00:03;2.00;;;1.80;;
45842;SDS011;31563;51.744;8.252;2023-11-22T07:02:35;2.00;;;1.60;;
45842;SDS011;31563;51.744;8.252;2023-11-22T07:05:04;2.22;;;1.67;;
45842;SDS011;31563;51.744;8.252;2023-11-22T07:07:34;2.67;;;1.77;;
45842;SDS011;31563;51.744;8.252;2023-11-22T07:10:03;2.75;;;1.83;;
45842;SDS011;31563;51.744;8.252;2023-11-22T07:12:31;3.17;;;1.65;;
45842;SDS011;31563;51.744;8.252;2023-11-22T07:15:00;1.90;;;1.60;;
45842;SDS011;31563;51.744;8.252;2023-11-22T07:17:30;2.00;;;1.42;;
45842;SDS011;31563;51.744;8.252;2023-11-22T07:20:00;2.47;;;1.55;;
45842;SDS011;31563;51.744;8.252;2023-11-22T07:22:28;4.93;;;1.70;;
45842;SDS011;31563;51.744;8.252;2023-11-22T07:24:56;2.08;;;1.50;;
45842;SDS011;31563;51.744;8.252;2023-11-22T07:27:27;3.83;;;1.83;;
45842;SDS011;31563;51.744;8.252;2023-11-22T07:29:55;3.15;;;1.60;;
45842;SDS011;31563;51.744;8.252;2023-11-22T07:32:23;1.38;;;1.27;;
45842;SDS011;31563;51.744;8.252;2023-11-22T07:34:53;2.17;;;1.30;;
45842;SDS011;31563;51.744;8.252;2023-11-22T07:37:22;2.15;;;1.88;;
45842;SDS011;31563;51.744;8.252;2023-11-22T07:39:50;1.60;;;1.27;;
45842;SDS011;31563;51.744;8.252;2023-11-22T07:42:18;2.15;;;1.20;;
45842;SDS011;31563;51.744;8.252;2023-11-22T07:44:46;1.88;;;1.50;;
45842;SDS011;31563;51.744;8.252;2023-11-22T07:47:14;1.70;;;1.25;;
45842;SDS011;31563;51.744;8.252;2023-11-22T07:49:42;2.35;;;1.45;;
45842;SDS011;31563;51.744;8.252;2023-11-22T07:52:12;2.58;;;1.90;;
45842;SDS011;31563;51.744;8.252;2023-11-22T07:54:41;2.72;;;1.85;;
45842;SDS011;31563;51.744;8.252;2023-11-22T07:57:09;1.77;;;1.35;;
45842;SDS011;31563;51.744;8.252;2023-11-22T07:59:37;1.80;;;1.45;;
45842;SDS011;31563;51.744;8.252;2023-11-22T08:02:05;1.95;;;1.30;;
45842;SDS011;31563;51.744;8.252;2023-11-22T08:04:37;2.05;;;1.45;;
45842;SDS011;31563;51.744;8.252;2023-11-22T08:07:06;1.77;;;1.40;;
45842;SDS011;31563;51.744;8.252;2023-11-22T08:09:35;2.78;;;1.60;;
45842;SDS011;31563;51.744;8.252;2023-11-22T08:12:04;1.50;;;1.35;;
45842;SDS011;31563;51.744;8.252;2023-11-22T08:14:33;1.20;;;1.10;;
45842;SDS011;31563;51.744;8.252;2023-11-22T08:17:01;2.35;;;1.35;;
45842;SDS011;31563;51.744;8.252;2023-11-22T08:19:29;1.85;;;1.30;;
45842;SDS011;31563;51.744;8.252;2023-11-22T08:21:57;2.00;;;1.30;;
45842;SDS011;31563;51.744;8.252;2023-11-22T08:24:25;1.83;;;1.48;;
45842;SDS011;31563;51.744;8.252;2023-11-22T08:26:55;1.83;;;1.55;;
45842;SDS011;31563;51.744;8.252;2023-11-22T08:29:24;8.55;;;2.67;;
45842;SDS011;31563;51.744;8.252;2023-11-22T08:31:53;2.47;;;2.05;;
45842;SDS011;31563;51.744;8.252;2023-11-22T08:34:21;2.47;;;2.00;;
45842;SDS011;31563;51.744;8.252;2023-11-22T08:36:49;3.63;;;1.90;;
45842;SDS011;31563;51.744;8.252;2023-11-22T08:39:17;2.30;;;1.80;;
45842;SDS011;31563;51.744;8.252;2023-11-22T08:41:44;3.22;;;1.70;;
45842;SDS011;31563;51.744;8.252;2023-11-22T08:44:15;3.08;;;1.58;;
45842;SDS011;31563;51.744;8.252;2023-11-22T08:46:43;2.77;;;1.73;;
45842;SDS011;31563;51.744;8.252;2023-11-22T08:49:13;2.03;;;1.80;;
45842;SDS011;31563;51.744;8.252;2023-11-22T08:51:41;2.78;;;1.27;;
45842;SDS011;31563;51.744;8.252;2023-11-22T08:54:10;1.92;;;1.52;;
45842;SDS011;31563;51.744;8.252;2023-11-22T08:56:38;4.50;;;1.23;;
45842;SDS011;31563;51.744;8.252;2023-11-22T09:01:37;1.65;;;1.30;;
45842;SDS011;31563;51.744;8.252;2023-11-22T09:04:06;2.35;;;1.27;;
45842;SDS011;31563;51.744;8.252;2023-11-22T09:06:35;2.03;;;1.48;;
45842;SDS011;31563;51.744;8.252;2023-11-22T09:09:03;4.03;;;1.30;;
45842;SDS011;31563;51.744;8.252;2023-11-22T09:11:31;2.15;;;1.42;;
45842;SDS011;31563;51.744;8.252;2023-11-22T09:14:01;1.63;;;1.20;;
45842;SDS011;31563;51.744;8.252;2023-11-22T09:16:34;2.67;;;1.70;;
45842;SDS011;31563;51.744;8.252;2023-11-22T09:19:04;1.55;;;1.20;;
45842;SDS011;31563;51.744;8.252;2023-11-22T09:21:32;1.90;;;1.23;;
45842;SDS011;31563;51.744;8.252;2023-11-22T09:24:01;2.80;;;1.30;;
45842;SDS011;31563;51.744;8.252;2023-11-22T09:26:32;1.65;;;1.25;;
45842;SDS011;31563;51.744;8.252;2023-11-22T09:29:00;1.95;;;0.93;;
45842;SDS011;31563;51.744;8.252;2023-11-22T09:31:29;1.60;;;1.30;;
45842;SDS011;31563;51.744;8.252;2023-11-22T09:33:57;1.40;;;1.05;;
45842;SDS011;31563;51.744;8.252;2023-11-22T09:36:26;1.20;;;1.10;;
45842;SDS011;31563;51.744;8.252;2023-11-22T09:38:56;1.05;;;0.90;;
45842;SDS011;31563;51.744;8.252;2023-11-22T09:41:24;1.30;;;0.80;;
45842;SDS011;31563;51.744;8.252;2023-11-22T09:43:53;1.50;;;1.10;;
45842;SDS011;31563;51.744;8.252;2023-11-22T09:46:22;1.45;;;0.88;;
45842;SDS011;31563;51.744;8.252;2023-11-22T09:48:50;2.97;;;2.07;;
45842;SDS011;31563;51.744;8.252;2023-11-22T09:51:23;2.17;;;1.48;;
45842;SDS011;31563;51.744;8.252;2023-11-22T09:53:55;2.35;;;1.58;;
45842;SDS011;31563;51.744;8.252;2023-11-22T09:56:25;3.13;;;1.27;;
45842;SDS011;31563;51.744;8.252;2023-11-22T09:58:54;2.40;;;2.20;;
45842;SDS011;31563;51.744;8.252;2023-11-22T10:01:26;1.88;;;1.50;;
45842;SDS011;31563;51.744;8.252;2023-11-22T10:03:57;2.20;;;1.70;;
45842;SDS011;31563;51.744;8.252;2023-11-22T10:06:26;4.33;;;1.83;;
45842;SDS011;31563;51.744;8.252;2023-11-22T10:09:00;2.70;;;1.35;;
45842;SDS011;31563;51.744;8.252;2023-11-22T10:11:32;1.50;;;1.20;;
45842;SDS011;31563;51.744;8.252;2023-11-22T10:16:31;1.70;;;1.00;;
45842;SDS011;31563;51.744;8.252;2023-11-22T10:18:59;2.67;;;1.08;;
45842;SDS011;31563;51.744;8.252;2023-11-22T10:21:27;2.53;;;1.10;;
45842;SDS011;31563;51.744;8.252;2023-11-22T10:24:00;1.65;;;0.98;;
45842;SDS011;31563;51.744;8.252;2023-11-22T10:26:30;2.92;;;1.00;;
45842;SDS011;31563;51.744;8.252;2023-11-22T10:28:59;1.20;;;0.80;;
45842;SDS011;31563;51.744;8.252;2023-11-22T10:31:28;2.23;;;1.00;;
45842;SDS011;31563;51.744;8.252;2023-11-22T10:33:56;1.50;;;1.00;;
45842;SDS011;31563;51.744;8.252;2023-11-22T10:36:25;2.45;;;0.90;;
45842;SDS011;31563;51.744;8.252;2023-11-22T10:38:54;1.98;;;0.90;;
45842;SDS011;31563;51.744;8.252;2023-11-22T10:41:23;1.27;;;0.60;;
45842;SDS011;31563;51.744;8.252;2023-11-22T10:43:51;1.15;;;0.80;;
45842;SDS011;31563;51.744;8.252;2023-11-22T10:46:22;2.03;;;0.70;;
45842;SDS011;31563;51.744;8.252;2023-11-22T10:48:54;1.08;;;0.95;;
45842;SDS011;31563;51.744;8.252;2023-11-22T10:51:23;1.23;;;0.75;;
45842;SDS011;31563;51.744;8.252;2023-11-22T10:53:57;1.48;;;1.00;;
45842;SDS011;31563;51.744;8.252;2023-11-22T10:56:28;2.28;;;1.83;;
45842;SDS011;31563;51.744;8.252;2023-11-22T10:59:04;2.65;;;1.67;;
45842;SDS011;31563;51.744;8.252;2023-11-22T11:01:37;2.53;;;1.30;;
45842;SDS011;31563;51.744;8.252;2023-11-22T11:04:08;3.53;;;1.30;;
45842;SDS011;31563;51.744;8.252;2023-11-22T11:09:07;1.40;;;1.00;;
45842;SDS011;31563;51.744;8.252;2023-11-22T11:11:37;1.73;;;1.17;;
45842;SDS011;31563;51.744;8.252;2023-11-22T11:14:05;3.38;;;1.10;;
45842;SDS011;31563;51.744;8.252;2023-11-22T11:16:38;2.95;;;1.20;;
45842;SDS011;31563;51.744;8.252;2023-11-22T11:19:13;1.20;;;0.82;;
45842;SDS011;31563;51.744;8.252;2023-11-22T11:21:43;2.95;;;1.00;;
45842;SDS011;31563;51.744;8.252;2023-11-22T11:24:12;1.30;;;1.10;;
45842;SDS011;31563;51.744;8.252;2023-11-22T11:26:42;1.42;;;0.82;;
45842;SDS011;31563;51.744;8.252;2023-11-22T11:29:30;1.00;;;0.90;;
45842;SDS011;31563;51.744;8.252;2023-11-22T11:31:59;2.70;;;1.35;;
45842;SDS011;31563;51.744;8.252;2023-11-22T11:34:29;2.20;;;1.00;;
45842;SDS011;31563;51.744;8.252;2023-11-22T11:36:58;1.17;;;0.98;;
45842;SDS011;31563;51.744;8.252;2023-11-22T11:39:27;1.55;;;1.08;;
45842;SDS011;31563;51.744;8.252;2023-11-22T11:44:50;1.95;;;1.10;;
45842;SDS011;31563;51.744;8.252;2023-11-22T11:47:29;4.38;;;1.00;;
45842;SDS011;31563;51.744;8.252;2023-11-22T11:49:57;1.10;;;0.80;;
45842;SDS011;31563;51.744;8.252;2023-11-22T11:52:26;5.75;;;1.98;;
45842;SDS011;31563;51.744;8.252;2023-11-22T11:54:54;6.10;;;2.05;;
45842;SDS011;31563;51.744;8.252;2023-11-22T11:57:26;5.00;;;1.70;;
45842;SDS011;31563;51.744;8.252;2023-11-22T11:59:58;4.20;;;1.80;;
45842;SDS011;31563;51.744;8.252;2023-11-22T12:02:26;3.78;;;1.75;;
45842;SDS011;31563;51.744;8.252;2023-11-22T12:04:55;3.90;;;1.40;;
45842;SDS011;31563;51.744;8.252;2023-11-22T12:07:23;3.38;;;1.30;;
45842;SDS011;31563;51.744;8.252;2023-11-22T12:09:51;4.80;;;1.17;;
45842;SDS011;31563;51.744;8.252;2023-11-22T12:12:18;3.75;;;1.30;;
45842;SDS011;31563;51.744;8.252;2023-11-22T12:14:48;2.55;;;1.17;;
45842;SDS011;31563;51.744;8.252;2023-11-22T12:17:17;2.08;;;1.30;;
45842;SDS011;31563;51.744;8.252;2023-11-22T12:19:45;4.78;;;1.60;;
45842;SDS011;31563;51.744;8.252;2023-11-22T12:24:43;2.58;;;1.08;;
45842;SDS011;31563;51.744;8.252;2023-11-22T12:27:11;1.48;;;0.95;;
45842;SDS011;31563;51.744;8.252;2023-11-22T12:29:39;1.88;;;1.08;;
45842;SDS011;31563;51.744;8.252;2023-11-22T12:32:09;2.28;;;1.05;;
45842;SDS011;31563;51.744;8.252;2023-11-22T12:34:39;1.83;;;0.80;;
45842;SDS011;31563;51.744;8.252;2023-11-22T12:37:07;1.65;;;0.88;;
45842;SDS011;31563;51.744;8.252;2023-11-22T12:39:35;2.88;;;0.90;;
45842;SDS011;31563;51.744;8.252;2023-11-22T12:42:04;2.17;;;0.90;;
45842;SDS011;31563;51.744;8.252;2023-11-22T12:44:46;2.20;;;1.05;;
45842;SDS011;31563;51.744;8.252;2023-11-22T12:47:18;2.83;;;0.93;;
45842;SDS011;31563;51.744;8.252;2023-11-22T12:49:59;1.42;;;0.75;;
45842;SDS011;31563;51.744;8.252;2023-11-22T12:52:27;2.80;;;0.63;;
45842;SDS011;31563;51.744;8.252;2023-11-22T12:54:55;0.70;;;0.52;;
45842;SDS011;31563;51.744;8.252;2023-11-22T12:57:23;1.85;;;0.60;;
45842;SDS011;31563;51.744;8.252;2023-11-22T12:59:50;2.78;;;0.90;;
45842;SDS011;31563;51.744;8.252;2023-11-22T13:02:20;2.50;;;0.70;;
45842;SDS011;31563;51.744;8.252;2023-11-22T13:04:48;2.42;;;0.73;;
45842;SDS011;31563;51.744;8.252;2023-11-22T13:07:16;1.40;;;0.63;;
45842;SDS011;31563;51.744;8.252;2023-11-22T13:09:46;2.92;;;0.90;;
45842;SDS011;31563;51.744;8.252;2023-11-22T13:12:14;4.47;;;0.85;;
45842;SDS011;31563;51.744;8.252;2023-11-22T13:14:44;3.05;;;1.02;;
45842;SDS011;31563;51.744;8.252;2023-11-22T13:17:13;2.67;;;0.80;;
45842;SDS011;31563;51.744;8.252;2023-11-22T13:19:43;2.30;;;0.60;;
45842;SDS011;31563;51.744;8.252;2023-11-22T13:22:13;2.70;;;0.75;;
45842;SDS011;31563;51.744;8.252;2023-11-22T13:24:42;3.30;;;0.87;;
45842;SDS011;31563;51.744;8.252;2023-11-22T13:27:10;1.60;;;0.73;;
45842;SDS011;31563;51.744;8.252;2023-11-22T13:29:38;2.15;;;1.48;;
45842;SDS011;31563;51.744;8.252;2023-11-22T13:32:06;4.07;;;1.48;;
45842;SDS011;31563;51.744;8.252;2023-11-22T13:34:34;2.10;;;1.20;;
45842;SDS011;31563;51.744;8.252;2023-11-22T13:37:03;3.75;;;1.17;;
45842;SDS011;31563;51.744;8.252;2023-11-22T13:41:59;4.00;;;0.98;;
45842;SDS011;31563;51.744;8.252;2023-11-22T13:44:28;2.22;;;1.20;;
45842;SDS011;31563;51.744;8.252;2023-11-22T13:46:56;2.75;;;1.00;;
45842;SDS011;31563;51.744;8.252;2023-11-22T13:49:24;1.75;;;0.70;;
45842;SDS011;31563;51.744;8.252;2023-11-22T13:51:52;1.80;;;0.90;;
45842;SDS011;31563;51.744;8.252;2023-11-22T13:54:21;2.28;;;0.80;;
45842;SDS011;31563;51.744;8.252;2023-11-22T13:56:49;1.30;;;0.70;;
45842;SDS011;31563;51.744;8.252;2023-11-22T13:59:18;3.35;;;1.20;;
45842;SDS011;31563;51.744;8.252;2023-11-22T14:01:46;2.03;;;0.90;;
45842;SDS011;31563;51.744;8.252;2023-11-22T14:04:17;1.25;;;0.80;;
45842;SDS011;31563;51.744;8.252;2023-11-22T14:06:45;1.75;;;0.70;;
45842;SDS011;31563;51.744;8.252;2023-11-22T14:09:13;1.10;;;0.60;;
45842;SDS011;31563;51.744;8.252;2023-11-22T14:11:43;2.27;;;1.07;;
45842;SDS011;31563;51.744;8.252;2023-11-22T14:14:12;2.95;;;0.75;;
45842;SDS011;31563;51.744;8.252;2023-11-22T14:16:43;2.70;;;0.88;;
45842;SDS011;31563;51.744;8.252;2023-11-22T14:19:11;1.27;;;0.70;;
45842;SDS011;31563;51.744;8.252;2023-11-22T14:21:40;1.08;;;0.80;;
45842;SDS011;31563;51.744;8.252;2023-11-22T14:24:08;1.88;;;0.70;;
45842;SDS011;31563;51.744;8.252;2023-11-22T14:26:36;1.00;;;0.60;;
45842;SDS011;31563;51.744;8.252;2023-11-22T14:29:05;1.00;;;0.63;;
45842;SDS011;31563;51.744;8.252;2023-11-22T14:31:33;1.80;;;0.98;;
45842;SDS011;31563;51.744;8.252;2023-11-22T14:34:01;1.50;;;0.70;;
45842;SDS011;31563;51.744;8.252;2023-11-22T14:36:31;1.75;;;1.08;;
45842;SDS011;31563;51.744;8.252;2023-11-22T14:38:59;1.20;;;0.80;;
45842;SDS011;31563;51.744;8.252;2023-11-22T14:41:27;1.05;;;0.90;;
45842;SDS011;31563;51.744;8.252;2023-11-22T14:43:55;2.17;;;0.90;;
45842;SDS011;31563;51.744;8.252;2023-11-22T14:46:25;1.83;;;0.80;;
45842;SDS011;31563;51.744;8.252;2023-11-22T14:48:53;1.13;;;1.00;;
45842;SDS011;31563;51.744;8.252;2023-11-22T14:51:20;1.15;;;0.88;;
45842;SDS011;31563;51.744;8.252;2023-11-22T14:53:49;1.88;;;1.00;;
45842;SDS011;31563;51.744;8.252;2023-11-22T14:56:18;0.98;;;0.80;;
45842;SDS011;31563;51.744;8.252;2023-11-22T14:58:46;1.33;;;0.70;;
45842;SDS011;31563;51.744;8.252;2023-11-22T15:01:20;5.68;;;1.10;;
45842;SDS011;31563;51.744;8.252;2023-11-22T15:03:50;1.02;;;0.68;;
45842;SDS011;31563;51.744;8.252;2023-11-22T15:06:20;1.90;;;1.10;;
45842;SDS011;31563;51.744;8.252;2023-11-22T15:08:48;2.20;;;1.63;;
45842;SDS011;31563;51.744;8.252;2023-11-22T15:11:17;5.43;;;4.88;;
45842;SDS011;31563;51.744;8.252;2023-11-22T15:13:45;14.95;;;13.35;;
45842;SDS011;31563;51.744;8.252;2023-11-22T15:16:13;10.25;;;9.35;;